<?xml version="1.0" encoding="UTF-8" standalone="no" ?>
<gpx xmlns="http://www.topografix.com/GPX/1/1" xmlns:xsi="http://www.w3.org/2001/XMLSchema-instance" xsi:schemaLocation="http://www.topografix.com/GPX/1/1 http://www.topografix.com/GPX/1/1/gpx.xsd" version="1.1" creator="VisuGPX - https://www.visugpx.com">
  <metadata>
    <name>L Aulp Du Seuil</name>
    <desc><![CDATA[grp_trc:[nouvelles]]]></desc>
  </metadata>
  <trk>
    <name><![CDATA[26 juin 2021 à 06:25:53]]></name>
    <cmt><![CDATA[26 juin 2021 à 06:25:53]]></cmt>
    <trkseg>
      <trkpt lat="45.35654" lon="5.8851">
        <ele>1672</ele>
        <time>2021-06-26T04:25:54Z</time>
      </trkpt>
      <trkpt lat="45.35655" lon="5.88509">
        <ele>1673</ele>
        <time>2021-06-26T04:25:55Z</time>
      </trkpt>
      <trkpt lat="45.35655" lon="5.88506">
        <ele>1672</ele>
        <time>2021-06-26T04:26:01Z</time>
      </trkpt>
      <trkpt lat="45.35655" lon="5.88507">
        <ele>1672</ele>
        <time>2021-06-26T04:26:02Z</time>
      </trkpt>
      <trkpt lat="45.35644" lon="5.88575">
        <ele>1678</ele>
        <time>2021-06-26T04:41:07Z</time>
      </trkpt>
      <trkpt lat="45.35644" lon="5.88575">
        <ele>1678</ele>
        <time>2021-06-26T04:41:08Z</time>
      </trkpt>
      <trkpt lat="45.35641" lon="5.88582">
        <ele>1680</ele>
        <time>2021-06-26T04:41:26Z</time>
      </trkpt>
      <trkpt lat="45.35633" lon="5.88576">
        <ele>1679</ele>
        <time>2021-06-26T04:41:47Z</time>
      </trkpt>
      <trkpt lat="45.35618" lon="5.88591">
        <ele>1685</ele>
        <time>2021-06-26T04:42:18Z</time>
      </trkpt>
      <trkpt lat="45.35613" lon="5.88593">
        <ele>1685</ele>
        <time>2021-06-26T04:42:20Z</time>
      </trkpt>
      <trkpt lat="45.3561" lon="5.88604">
        <ele>1685</ele>
        <time>2021-06-26T04:42:26Z</time>
      </trkpt>
      <trkpt lat="45.35604" lon="5.88606">
        <ele>1688</ele>
        <time>2021-06-26T04:42:30Z</time>
      </trkpt>
      <trkpt lat="45.35609" lon="5.8861">
        <ele>1689</ele>
        <time>2021-06-26T04:45:48Z</time>
      </trkpt>
      <trkpt lat="45.35615" lon="5.88611">
        <ele>1691</ele>
        <time>2021-06-26T04:47:27Z</time>
      </trkpt>
      <trkpt lat="45.35619" lon="5.88612">
        <ele>1691</ele>
        <time>2021-06-26T04:49:14Z</time>
      </trkpt>
      <trkpt lat="45.35622" lon="5.88605">
        <ele>1689</ele>
        <time>2021-06-26T04:49:17Z</time>
      </trkpt>
      <trkpt lat="45.35626" lon="5.88598">
        <ele>1688</ele>
        <time>2021-06-26T04:49:22Z</time>
      </trkpt>
      <trkpt lat="45.35628" lon="5.88586">
        <ele>1688</ele>
        <time>2021-06-26T04:49:43Z</time>
      </trkpt>
      <trkpt lat="45.35635" lon="5.88577">
        <ele>1684</ele>
        <time>2021-06-26T04:49:56Z</time>
      </trkpt>
      <trkpt lat="45.35636" lon="5.88567">
        <ele>1685</ele>
        <time>2021-06-26T04:50:03Z</time>
      </trkpt>
      <trkpt lat="45.35632" lon="5.88558">
        <ele>1684</ele>
        <time>2021-06-26T04:50:42Z</time>
      </trkpt>
      <trkpt lat="45.35639" lon="5.88554">
        <ele>1685</ele>
        <time>2021-06-26T04:51:18Z</time>
      </trkpt>
      <trkpt lat="45.35634" lon="5.88576">
        <ele>1684</ele>
        <time>2021-06-26T04:52:42Z</time>
      </trkpt>
      <trkpt lat="45.35641" lon="5.8858">
        <ele>1683</ele>
        <time>2021-06-26T04:53:58Z</time>
      </trkpt>
      <trkpt lat="45.35645" lon="5.88587">
        <ele>1684</ele>
        <time>2021-06-26T04:54:01Z</time>
      </trkpt>
      <trkpt lat="45.35644" lon="5.88595">
        <ele>1683</ele>
        <time>2021-06-26T04:56:16Z</time>
      </trkpt>
      <trkpt lat="45.35652" lon="5.88592">
        <ele>1682</ele>
        <time>2021-06-26T04:57:28Z</time>
      </trkpt>
      <trkpt lat="45.35646" lon="5.88583">
        <ele>1684</ele>
        <time>2021-06-26T04:57:34Z</time>
      </trkpt>
      <trkpt lat="45.35639" lon="5.88574">
        <ele>1683</ele>
        <time>2021-06-26T04:57:45Z</time>
      </trkpt>
      <trkpt lat="45.35636" lon="5.88562">
        <ele>1687</ele>
        <time>2021-06-26T04:58:05Z</time>
      </trkpt>
      <trkpt lat="45.35636" lon="5.88567">
        <ele>1683</ele>
        <time>2021-06-26T05:00:37Z</time>
      </trkpt>
      <trkpt lat="45.3564" lon="5.88576">
        <ele>1685</ele>
        <time>2021-06-26T05:00:52Z</time>
      </trkpt>
      <trkpt lat="45.35644" lon="5.88593">
        <ele>1684</ele>
        <time>2021-06-26T05:02:07Z</time>
      </trkpt>
      <trkpt lat="45.3565" lon="5.886">
        <ele>1685</ele>
        <time>2021-06-26T05:02:25Z</time>
      </trkpt>
      <trkpt lat="45.35642" lon="5.88606">
        <ele>1685</ele>
        <time>2021-06-26T05:02:40Z</time>
      </trkpt>
      <trkpt lat="45.3564" lon="5.88599">
        <ele>1685</ele>
        <time>2021-06-26T05:04:57Z</time>
      </trkpt>
      <trkpt lat="45.35646" lon="5.88594">
        <ele>1682</ele>
        <time>2021-06-26T05:06:09Z</time>
      </trkpt>
      <trkpt lat="45.35645" lon="5.88605">
        <ele>1684</ele>
        <time>2021-06-26T05:09:52Z</time>
      </trkpt>
      <trkpt lat="45.35649" lon="5.88611">
        <ele>1686</ele>
        <time>2021-06-26T05:09:58Z</time>
      </trkpt>
      <trkpt lat="45.35648" lon="5.88604">
        <ele>1685</ele>
        <time>2021-06-26T05:11:06Z</time>
      </trkpt>
      <trkpt lat="45.35642" lon="5.88599">
        <ele>1684</ele>
        <time>2021-06-26T05:15:22Z</time>
      </trkpt>
      <trkpt lat="45.35639" lon="5.88592">
        <ele>1684</ele>
        <time>2021-06-26T05:17:37Z</time>
      </trkpt>
      <trkpt lat="45.35634" lon="5.88587">
        <ele>1685</ele>
        <time>2021-06-26T05:17:51Z</time>
      </trkpt>
      <trkpt lat="45.35626" lon="5.88581">
        <ele>1686</ele>
        <time>2021-06-26T05:20:03Z</time>
      </trkpt>
      <trkpt lat="45.35625" lon="5.88573">
        <ele>1685</ele>
        <time>2021-06-26T05:22:03Z</time>
      </trkpt>
      <trkpt lat="45.35616" lon="5.88568">
        <ele>1685</ele>
        <time>2021-06-26T05:22:36Z</time>
      </trkpt>
      <trkpt lat="45.35617" lon="5.88574">
        <ele>1685</ele>
        <time>2021-06-26T05:24:11Z</time>
      </trkpt>
      <trkpt lat="45.35623" lon="5.8858">
        <ele>1684</ele>
        <time>2021-06-26T05:25:23Z</time>
      </trkpt>
      <trkpt lat="45.35629" lon="5.88578">
        <ele>1686</ele>
        <time>2021-06-26T05:27:53Z</time>
      </trkpt>
      <trkpt lat="45.35628" lon="5.88583">
        <ele>1685</ele>
        <time>2021-06-26T05:49:14Z</time>
      </trkpt>
      <trkpt lat="45.35636" lon="5.88577">
        <ele>1685</ele>
        <time>2021-06-26T05:50:45Z</time>
      </trkpt>
      <trkpt lat="45.35645" lon="5.88579">
        <ele>1685</ele>
        <time>2021-06-26T05:50:59Z</time>
      </trkpt>
      <trkpt lat="45.35651" lon="5.88578">
        <ele>1679</ele>
        <time>2021-06-26T05:51:09Z</time>
      </trkpt>
      <trkpt lat="45.35655" lon="5.88567">
        <ele>1682</ele>
        <time>2021-06-26T05:51:21Z</time>
      </trkpt>
      <trkpt lat="45.35654" lon="5.88558">
        <ele>1680</ele>
        <time>2021-06-26T05:51:28Z</time>
      </trkpt>
      <trkpt lat="45.35652" lon="5.8855">
        <ele>1682</ele>
        <time>2021-06-26T05:51:38Z</time>
      </trkpt>
      <trkpt lat="45.35651" lon="5.88537">
        <ele>1679</ele>
        <time>2021-06-26T05:51:51Z</time>
      </trkpt>
      <trkpt lat="45.35646" lon="5.88521">
        <ele>1682</ele>
        <time>2021-06-26T05:52:01Z</time>
      </trkpt>
      <trkpt lat="45.35653" lon="5.88516">
        <ele>1678</ele>
        <time>2021-06-26T05:52:09Z</time>
      </trkpt>
      <trkpt lat="45.35659" lon="5.88513">
        <ele>1675</ele>
        <time>2021-06-26T05:52:29Z</time>
      </trkpt>
      <trkpt lat="45.35656" lon="5.88517">
        <ele>1678</ele>
        <time>2021-06-26T05:53:16Z</time>
      </trkpt>
      <trkpt lat="45.35662" lon="5.88524">
        <ele>1679</ele>
        <time>2021-06-26T05:54:37Z</time>
      </trkpt>
      <trkpt lat="45.35663" lon="5.88514">
        <ele>1676</ele>
        <time>2021-06-26T05:59:30Z</time>
      </trkpt>
      <trkpt lat="45.3567" lon="5.88519">
        <ele>1677</ele>
        <time>2021-06-26T06:00:19Z</time>
      </trkpt>
      <trkpt lat="45.35669" lon="5.88519">
        <ele>1672</ele>
        <time>2021-06-26T06:01:54Z</time>
      </trkpt>
      <trkpt lat="45.35663" lon="5.88516">
        <ele>1676</ele>
        <time>2021-06-26T06:02:54Z</time>
      </trkpt>
      <trkpt lat="45.35664" lon="5.88518">
        <ele>1677</ele>
        <time>2021-06-26T06:05:25Z</time>
      </trkpt>
      <trkpt lat="45.35664" lon="5.88521">
        <ele>1677</ele>
        <time>2021-06-26T06:07:19Z</time>
      </trkpt>
      <trkpt lat="45.3566" lon="5.88522">
        <ele>1675</ele>
        <time>2021-06-26T06:16:46Z</time>
      </trkpt>
      <trkpt lat="45.35655" lon="5.88513">
        <ele>1671</ele>
        <time>2021-06-26T06:17:22Z</time>
      </trkpt>
      <trkpt lat="45.35641" lon="5.885">
        <ele>1668</ele>
        <time>2021-06-26T06:19:22Z</time>
      </trkpt>
      <trkpt lat="45.35643" lon="5.88473">
        <ele>1667</ele>
        <time>2021-06-26T06:19:55Z</time>
      </trkpt>
      <trkpt lat="45.35632" lon="5.88454">
        <ele>1667</ele>
        <time>2021-06-26T06:20:28Z</time>
      </trkpt>
      <trkpt lat="45.35618" lon="5.88448">
        <ele>1665</ele>
        <time>2021-06-26T06:21:17Z</time>
      </trkpt>
      <trkpt lat="45.35598" lon="5.88439">
        <ele>1668</ele>
        <time>2021-06-26T06:22:48Z</time>
      </trkpt>
      <trkpt lat="45.35581" lon="5.88447">
        <ele>1670</ele>
        <time>2021-06-26T06:23:18Z</time>
      </trkpt>
      <trkpt lat="45.35565" lon="5.88445">
        <ele>1671</ele>
        <time>2021-06-26T06:23:49Z</time>
      </trkpt>
      <trkpt lat="45.35551" lon="5.88438">
        <ele>1675</ele>
        <time>2021-06-26T06:24:45Z</time>
      </trkpt>
      <trkpt lat="45.35509" lon="5.88426">
        <ele>1683</ele>
        <time>2021-06-26T06:25:54Z</time>
      </trkpt>
      <trkpt lat="45.35494" lon="5.88416">
        <ele>1683</ele>
        <time>2021-06-26T06:26:33Z</time>
      </trkpt>
      <trkpt lat="45.35479" lon="5.88403">
        <ele>1684</ele>
        <time>2021-06-26T06:27:59Z</time>
      </trkpt>
      <trkpt lat="45.35469" lon="5.88387">
        <ele>1682</ele>
        <time>2021-06-26T06:28:53Z</time>
      </trkpt>
      <trkpt lat="45.35475" lon="5.88382">
        <ele>1682</ele>
        <time>2021-06-26T06:43:53Z</time>
      </trkpt>
      <trkpt lat="45.3546" lon="5.88374">
        <ele>1682</ele>
        <time>2021-06-26T06:52:16Z</time>
      </trkpt>
      <trkpt lat="45.35476" lon="5.88378">
        <ele>1676</ele>
        <time>2021-06-26T07:06:24Z</time>
      </trkpt>
      <trkpt lat="45.35489" lon="5.88389">
        <ele>1681</ele>
        <time>2021-06-26T07:34:13Z</time>
      </trkpt>
      <trkpt lat="45.35487" lon="5.88374">
        <ele>1680</ele>
        <time>2021-06-26T07:34:51Z</time>
      </trkpt>
      <trkpt lat="45.35484" lon="5.88368">
        <ele>1683</ele>
        <time>2021-06-26T07:35:04Z</time>
      </trkpt>
      <trkpt lat="45.35477" lon="5.88372">
        <ele>1680</ele>
        <time>2021-06-26T07:36:10Z</time>
      </trkpt>
      <trkpt lat="45.35479" lon="5.88369">
        <ele>1680</ele>
        <time>2021-06-26T09:09:53Z</time>
      </trkpt>
      <trkpt lat="45.55224" lon="5.93777">
        <ele>366</ele>
        <time>2021-06-27T16:32:47Z</time>
      </trkpt>
      <trkpt lat="45.55224" lon="5.93777">
        <ele>366</ele>
        <time>2021-06-27T16:32:56Z</time>
      </trkpt>
      <trkpt lat="45.55229" lon="5.93775">
        <ele>365</ele>
        <time>2021-06-27T19:58:42Z</time>
      </trkpt>
      <trkpt lat="45.55229" lon="5.93775">
        <ele>365</ele>
        <time>2021-06-27T19:58:51Z</time>
      </trkpt>
    </trkseg>
  </trk>
  <rte>
    <name><![CDATA[4 avr. 2019 à 23:11:12]]></name>
    <cmt><![CDATA[4 avr. 2019 à 23:11:12]]></cmt>
    <desc><![CDATA[{DC1}Heure de fin	: 
Durée totale	: 0h00:00
Moyenne globale	: -
Pente moyenne	: 0.00 %
Aire incluse	: 7.4932 ha
Détails par segments
distance  | durée    | vit.moy. | vit.max. | déniv. + | déniv -
   km     | hh:mn:ss |   km/h   |   km/h   |    m     |    m
     0.81 | 00:00:00 |      0.0 |      0.0 |        0 |        0{DC2}]]></desc>
      <rtept lat="45.60077" lon="6.18221">
        <ele>1608.6</ele>
      </rtept>
      <rtept lat="45.59468" lon="6.1822">
        <ele>1760.9</ele>
      </rtept>
      <rtept lat="45.59468" lon="6.1822">
        <ele>1760.9</ele>
      </rtept>
    </rte>
  <rte>
    <name><![CDATA[10 févr. 2019 à 15:16:12]]></name>
    <cmt><![CDATA[10 févr. 2019 à 15:16:12]]></cmt>
    <desc><![CDATA[{DC1}Heure de fin	: 00:09:21
Durée totale	: -17690439h43:48
Moyenne globale	: -
Pente moyenne	: 7.00 %
Aire incluse	: 221.0936 ha
Détails par segments
distance  | durée    | vit.moy. | vit.max. | déniv. + | déniv -
   km     | hh:mn:ss |   km/h   |   km/h   |    m     |    m
     7.48 | 00:00:00 |      0.0 |      0.0 |        0 |        0{DC2}]]></desc>
      <rtept lat="45.55203" lon="5.93805">
        <ele>376</ele>
      </rtept>
      <rtept lat="45.55177" lon="5.93873">
        <ele>369</ele>
      </rtept>
      <rtept lat="45.55176" lon="5.93942">
        <ele>367</ele>
      </rtept>
      <rtept lat="45.55105" lon="5.93942">
        <ele>367</ele>
      </rtept>
      <rtept lat="45.54993" lon="5.93908">
        <ele>371</ele>
      </rtept>
      <rtept lat="45.54929" lon="5.94099">
        <ele>370</ele>
      </rtept>
      <rtept lat="45.54908" lon="5.94204">
        <ele>367</ele>
      </rtept>
      <rtept lat="45.54991" lon="5.94287">
        <ele>365</ele>
      </rtept>
      <rtept lat="45.5506" lon="5.94384">
        <ele>361</ele>
      </rtept>
      <rtept lat="45.55147" lon="5.94384">
        <ele>357</ele>
      </rtept>
      <rtept lat="45.55129" lon="5.94607">
        <ele>358</ele>
      </rtept>
      <rtept lat="45.55029" lon="5.94809">
        <ele>355</ele>
      </rtept>
      <rtept lat="45.54884" lon="5.94886">
        <ele>346</ele>
      </rtept>
      <rtept lat="45.5477" lon="5.94931">
        <ele>342</ele>
      </rtept>
      <rtept lat="45.5468" lon="5.95004">
        <ele>339</ele>
      </rtept>
      <rtept lat="45.54596" lon="5.95133">
        <ele>340</ele>
      </rtept>
      <rtept lat="45.54446" lon="5.95195">
        <ele>343</ele>
      </rtept>
      <rtept lat="45.543" lon="5.95262">
        <ele>344</ele>
      </rtept>
      <rtept lat="45.54156" lon="5.95212">
        <ele>337</ele>
      </rtept>
      <rtept lat="45.54041" lon="5.95204">
        <ele>338</ele>
      </rtept>
      <rtept lat="45.53917" lon="5.95141">
        <ele>343</ele>
      </rtept>
      <rtept lat="45.53844" lon="5.95135">
        <ele>347</ele>
      </rtept>
      <rtept lat="45.53765" lon="5.9503">
        <ele>349</ele>
      </rtept>
      <rtept lat="45.5381" lon="5.94993">
        <ele>352</ele>
      </rtept>
      <rtept lat="45.53781" lon="5.94901">
        <ele>358</ele>
      </rtept>
      <rtept lat="45.53711" lon="5.94845">
        <ele>365</ele>
      </rtept>
      <rtept lat="45.53702" lon="5.94764">
        <ele>369</ele>
      </rtept>
      <rtept lat="45.53817" lon="5.94807">
        <ele>376</ele>
      </rtept>
      <rtept lat="45.53865" lon="5.94633">
        <ele>389</ele>
      </rtept>
      <rtept lat="45.53778" lon="5.94491">
        <ele>408</ele>
      </rtept>
      <rtept lat="45.53757" lon="5.94371">
        <ele>425</ele>
      </rtept>
      <rtept lat="45.53775" lon="5.94279">
        <ele>434</ele>
      </rtept>
      <rtept lat="45.53726" lon="5.94227">
        <ele>442</ele>
      </rtept>
      <rtept lat="45.53572" lon="5.94146">
        <ele>468</ele>
      </rtept>
      <rtept lat="45.53664" lon="5.94039">
        <ele>483</ele>
      </rtept>
      <rtept lat="45.53532" lon="5.93983">
        <ele>505</ele>
      </rtept>
      <rtept lat="45.53416" lon="5.93985">
        <ele>516</ele>
      </rtept>
      <rtept lat="45.5355" lon="5.93869">
        <ele>532</ele>
      </rtept>
      <rtept lat="45.5359" lon="5.93845">
        <ele>537</ele>
      </rtept>
      <rtept lat="45.5355" lon="5.93802">
        <ele>544</ele>
      </rtept>
      <rtept lat="45.53724" lon="5.93554">
        <ele>587</ele>
      </rtept>
      <rtept lat="45.53691" lon="5.93339">
        <ele>592</ele>
      </rtept>
      <rtept lat="45.5376" lon="5.93178">
        <ele>575</ele>
      </rtept>
      <rtept lat="45.53843" lon="5.93069">
        <ele>555</ele>
      </rtept>
      <rtept lat="45.53939" lon="5.93157">
        <ele>541</ele>
      </rtept>
      <rtept lat="45.54068" lon="5.93234">
        <ele>522</ele>
      </rtept>
      <rtept lat="45.54219" lon="5.93247">
        <ele>514</ele>
      </rtept>
      <rtept lat="45.54355" lon="5.93232">
        <ele>512</ele>
      </rtept>
      <rtept lat="45.54489" lon="5.9326">
        <ele>508</ele>
      </rtept>
      <rtept lat="45.54636" lon="5.93249">
        <ele>510</ele>
      </rtept>
      <rtept lat="45.54758" lon="5.93249">
        <ele>510</ele>
      </rtept>
      <rtept lat="45.54818" lon="5.93298">
        <ele>507</ele>
      </rtept>
      <rtept lat="45.54796" lon="5.93418">
        <ele>496</ele>
      </rtept>
      <rtept lat="45.5491" lon="5.93433">
        <ele>483</ele>
      </rtept>
      <rtept lat="45.55126" lon="5.9341">
        <ele>463</ele>
      </rtept>
      <rtept lat="45.55256" lon="5.93453">
        <ele>444</ele>
      </rtept>
      <rtept lat="45.55329" lon="5.93558">
        <ele>430</ele>
      </rtept>
      <rtept lat="45.55222" lon="5.93642">
        <ele>415</ele>
      </rtept>
      <rtept lat="45.55195" lon="5.93811">
        <ele>375</ele>
      </rtept>
    </rte>
  <rte>
    <name><![CDATA[10 févr. 2019 à 15:15:48]]></name>
    <cmt><![CDATA[10 févr. 2019 à 15:15:48]]></cmt>
    <desc><![CDATA[{DC1}Heure de fin	: 00:09:21
Durée totale	: -17690439h44:12
Moyenne globale	: -
Pente moyenne	: nan %
Aire incluse	: 0.0000 ha
Détails par segments
distance  | durée    | vit.moy. | vit.max. | déniv. + | déniv -
   km     | hh:mn:ss |   km/h   |   km/h   |    m     |    m
     0.00 | 00:00:00 |      0.0 |      0.0 |        0 |        0{DC2}]]></desc>
      <rtept lat="45.5175" lon="5.93483">
        <ele>732.3</ele>
      </rtept>
    </rte>
  <rte>
    <name><![CDATA[10 févr. 2019 à 15:06:08]]></name>
    <cmt><![CDATA[10 févr. 2019 à 15:06:08]]></cmt>
    <desc><![CDATA[{DC1}Heure de fin	: 
Durée totale	: 0h00:00
Moyenne globale	: -
Pente moyenne	: 8.03 %
Aire incluse	: 204.0794 ha
Détails par segments
distance  | durée    | vit.moy. | vit.max. | déniv. + | déniv -
   km     | hh:mn:ss |   km/h   |   km/h   |    m     |    m
    12.88 | 00:00:00 |      0.0 |      0.0 |        0 |        0{DC2}]]></desc>
      <rtept lat="45.5509" lon="5.9394">
        <ele>368</ele>
      </rtept>
      <rtept lat="45.55217" lon="5.93791">
        <ele>377</ele>
      </rtept>
    </rte>
  <rte>
    <name><![CDATA[10 févr. 2019 à 14:22:06]]></name>
    <cmt><![CDATA[10 févr. 2019 à 14:22:06]]></cmt>
    <desc><![CDATA[{DC1}Heure de fin	: 00:09:21
Durée totale	: -17690438h37:54
Moyenne globale	: -
Pente moyenne	: 5.62 %
Aire incluse	: 5.7967 ha
Détails par segments
distance  | durée    | vit.moy. | vit.max. | déniv. + | déniv -
   km     | hh:mn:ss |   km/h   |   km/h   |    m     |    m
     3.30 | 00:00:00 |      0.0 |      0.0 |        0 |        0{DC2}]]></desc>
      <rtept lat="45.55169" lon="5.93089">
        <ele>415</ele>
      </rtept>
      <rtept lat="45.5518" lon="5.93905">
        <ele>366</ele>
      </rtept>
    </rte>
  <rte>
    <name><![CDATA[10 févr. 2019 à 09:50:45]]></name>
    <cmt><![CDATA[10 févr. 2019 à 09:50:45]]></cmt>
    <desc><![CDATA[{DC1}Heure de fin	: 00:09:21
Durée totale	: -17690433h09:14
Moyenne globale	: -
Pente moyenne	: 0.00 %
Aire incluse	: 50.7119 ha
Détails par segments
distance  | durée    | vit.moy. | vit.max. | déniv. + | déniv -
   km     | hh:mn:ss |   km/h   |   km/h   |    m     |    m
     4.33 | 00:00:00 |      0.0 |      0.0 |        0 |        0{DC2}]]></desc>
      <rtept lat="45.5503" lon="5.93918">
        <ele>373.6</ele>
      </rtept>
      <rtept lat="45.55191" lon="5.93893">
        <ele>366.7</ele>
      </rtept>
    </rte>
  <rte>
    <name><![CDATA[10 févr. 2019 à 09:07:08]]></name>
    <cmt><![CDATA[10 févr. 2019 à 09:07:08]]></cmt>
    <desc><![CDATA[{DC1}Heure de fin	: 00:09:21
Durée totale	: -17690433h52:52
Moyenne globale	: -
Pente moyenne	: nan %
Aire incluse	: 0.0000 ha
Détails par segments
distance  | durée    | vit.moy. | vit.max. | déniv. + | déniv -
   km     | hh:mn:ss |   km/h   |   km/h   |    m     |    m
     0.00 | 00:00:00 |      0.0 |      0.0 |        0 |        0{DC2}]]></desc>
      <rtept lat="45.55102" lon="5.93919">
        <ele>370.1</ele>
      </rtept>
    </rte>
  <rte>
    <name><![CDATA[10 févr. 2019 à 09:02:25]]></name>
    <cmt><![CDATA[10 févr. 2019 à 09:02:25]]></cmt>
    <desc><![CDATA[{DC1}Heure de fin	: 00:09:21
Durée totale	: -17690433h57:35
Moyenne globale	: -
Pente moyenne	: nan %
Aire incluse	: 0.0000 ha
Détails par segments
distance  | durée    | vit.moy. | vit.max. | déniv. + | déniv -
   km     | hh:mn:ss |   km/h   |   km/h   |    m     |    m
     0.00 | 00:00:00 |      0.0 |      0.0 |        0 |        0{DC2}]]></desc>
      <rtept lat="45.55207" lon="5.93813">
        <ele>375.2</ele>
      </rtept>
    </rte>
  <rte>
    <name><![CDATA[10 févr. 2019 à 09:00:27]]></name>
    <cmt><![CDATA[10 févr. 2019 à 09:00:27]]></cmt>
    <desc><![CDATA[{DC1}Heure de fin	: 00:09:21
Durée totale	: -17690433h59:32
Moyenne globale	: -
Pente moyenne	: nan %
Aire incluse	: 0.0000 ha
Détails par segments
distance  | durée    | vit.moy. | vit.max. | déniv. + | déniv -
   km     | hh:mn:ss |   km/h   |   km/h   |    m     |    m
     0.00 | 00:00:00 |      0.0 |      0.0 |        0 |        0{DC2}]]></desc>
      <rtept lat="45.55244" lon="5.93858">
        <ele>366.6</ele>
      </rtept>
    </rte>
</gpx>